createdAt,value
2023-04-22T00:01:43.396Z,100460.83
2023-04-22T00:06:46.772Z,100458.64
2023-04-22T00:11:49.976Z,100459.70
2023-04-22T00:16:53.357Z,100455.88
2023-04-22T00:21:56.907Z,100449.20
2023-04-22T00:27:00.124Z,100441.94
2023-04-22T00:32:03.848Z,100440.48
2023-04-22T00:37:07.040Z,100438.95
2023-04-22T00:42:10.730Z,100440.03
2023-04-22T00:47:14.320Z,100435.02
2023-04-22T00:52:17.585Z,100431.66
2023-04-22T00:57:21.104Z,100427.69
2023-04-22T01:02:25.574Z,100426.81
2023-04-22T01:07:29.158Z,100423.65
2023-04-22T01:12:32.065Z,100421.63
2023-04-22T01:17:36.072Z,100421.73
2023-04-22T01:22:45.741Z,100422.80
2023-04-22T01:27:49.680Z,100424.38
2023-04-22T01:32:53.389Z,100420.05
2023-04-22T01:37:58.243Z,100418.94
2023-04-22T01:43:02.163Z,100416.51
2023-04-22T01:48:07.226Z,100414.77
2023-04-22T01:53:11.923Z,100421.49
2023-04-22T01:58:15.067Z,100425.77
2023-04-22T02:03:18.209Z,100427.41
2023-04-22T02:08:21.273Z,100429.61
2023-04-22T02:13:24.484Z,100424.90
2023-04-22T02:18:27.904Z,100419.90
2023-04-22T02:23:31.472Z,100418.13
2023-04-22T02:28:34.624Z,100416.25
2023-04-22T02:33:37.855Z,100417.02
2023-04-22T02:38:40.937Z,100408.31
2023-04-22T02:43:46.526Z,100406.02
2023-04-22T02:48:49.916Z,100405.40
2023-04-22T02:53:53.320Z,100403.81
2023-04-22T02:58:56.425Z,100403.80
2023-04-22T03:04:00.187Z,100403.56
2023-04-22T03:09:04.286Z,100399.58
2023-04-22T03:14:07.380Z,100397.02
2023-04-22T03:19:10.500Z,100401.06
2023-04-22T03:24:13.902Z,100407.44
2023-04-22T03:29:16.904Z,100407.11
2023-04-22T03:34:20.021Z,100410.08
2023-04-22T03:39:23.123Z,100408.21
2023-04-22T03:44:26.194Z,100409.70
2023-04-22T03:49:29.293Z,100411.31
2023-04-22T03:54:32.432Z,100418.77
2023-04-22T03:59:35.954Z,100420.29
2023-04-22T04:04:39.571Z,100423.28
2023-04-22T04:09:43.007Z,100428.89
2023-04-22T04:14:46.093Z,100428.60
2023-04-22T04:19:49.602Z,100423.41
2023-04-22T04:24:52.909Z,100427.77
2023-04-22T04:29:56.203Z,100430.15
2023-04-22T04:35:00.251Z,100435.66
2023-04-22T04:40:04.168Z,100436.45
2023-04-22T04:45:09.606Z,100439.33
2023-04-22T04:50:12.733Z,100434.27
2023-04-22T04:55:16.730Z,100436.62
2023-04-22T05:00:20.069Z,100433.48
2023-04-22T05:05:23.180Z,100432.16
2023-04-22T05:10:26.604Z,100431.99
2023-04-22T05:15:30.310Z,100431.66
2023-04-22T05:20:36.188Z,100429.54
2023-04-22T05:25:40.434Z,100429.55
2023-04-22T05:30:43.535Z,100431.77
2023-04-22T05:35:46.937Z,100432.61
2023-04-22T05:40:50.667Z,100432.67
2023-04-22T05:45:53.793Z,100433.35
2023-04-22T05:50:56.987Z,100428.35
2023-04-22T05:56:00.320Z,100425.58
2023-04-22T06:01:03.702Z,100424.59
2023-04-22T06:06:07.721Z,100420.74
2023-04-22T06:11:11.541Z,100420.13
2023-04-22T06:16:14.651Z,100421.67
2023-04-22T06:21:18.268Z,100418.05
2023-04-22T06:26:21.881Z,100417.64
2023-04-22T06:31:25.122Z,100415.48
2023-04-22T06:36:30.473Z,100414.88
2023-04-22T06:41:34.164Z,100413.88
2023-04-22T06:46:39.765Z,100410.92
2023-04-22T06:51:43.145Z,100410.00
2023-04-22T06:56:46.580Z,100411.21
2023-04-22T07:01:50.008Z,100413.67
2023-04-22T07:06:53.951Z,100407.27
2023-04-22T07:11:58.123Z,100413.54
2023-04-22T07:17:01.337Z,100408.64
2023-04-22T07:22:05.237Z,100404.05
2023-04-22T07:27:08.915Z,100403.77
2023-04-22T07:32:12.732Z,100404.89
2023-04-22T07:37:16.217Z,100401.11
2023-04-22T07:42:19.525Z,100396.59
2023-04-22T07:47:23.154Z,100391.97
2023-04-22T07:52:26.349Z,100395.86
2023-04-22T07:57:29.643Z,100391.11
2023-04-22T08:02:33.190Z,100393.00
2023-04-22T08:07:36.591Z,100397.14
2023-04-22T08:12:39.912Z,100394.54
2023-04-22T08:17:43.644Z,100389.33
2023-04-22T08:22:47.457Z,100391.81
2023-04-22T08:27:52.599Z,100387.10
2023-04-22T08:32:56.088Z,100387.95
2023-04-22T08:37:59.320Z,100382.47
2023-04-22T08:43:03.352Z,100385.42
2023-04-22T08:48:09.806Z,100382.35
2023-04-22T08:53:14.084Z,100381.13
2023-04-22T08:58:18.203Z,100380.13
2023-04-22T09:03:22.727Z,100376.80
2023-04-22T09:08:26.862Z,100370.05
2023-04-22T09:13:30.591Z,100369.91
2023-04-22T09:18:41.269Z,100369.55
2023-04-22T09:23:55.161Z,100363.88
2023-04-22T09:29:00.935Z,100358.30
2023-04-22T09:34:05.019Z,100352.42
2023-04-22T09:39:08.950Z,100343.46
2023-04-22T09:44:18.205Z,100342.58
2023-04-22T09:49:22.022Z,100338.78
2023-04-22T09:54:25.226Z,100332.57
2023-04-22T09:59:30.067Z,100327.66
2023-04-22T10:04:33.397Z,100319.08
2023-04-22T10:09:37.314Z,100314.40
2023-04-22T10:14:40.983Z,100307.04
2023-04-22T10:19:47.818Z,100301.13
2023-04-22T10:24:55.841Z,100295.91
2023-04-22T10:29:58.946Z,100285.70
2023-04-22T10:35:11.421Z,100281.27
2023-04-22T10:40:19.100Z,100276.58
2023-04-22T10:45:26.035Z,100267.33
2023-04-22T10:50:33.022Z,100264.15
2023-04-22T10:55:54.419Z,100263.81
2023-04-22T11:01:03.375Z,100260.88
2023-04-22T11:06:17.290Z,100259.25
2023-04-22T11:11:20.840Z,100254.63
2023-04-22T11:16:24.679Z,100251.35
2023-04-22T11:21:28.167Z,100250.81
2023-04-22T11:26:35.512Z,100249.50
2023-04-22T11:31:39.112Z,100250.00
2023-04-22T11:36:46.089Z,100243.26
2023-04-22T11:41:49.292Z,100235.75
2023-04-22T11:46:52.504Z,100229.45
2023-04-22T11:51:57.178Z,100227.90
2023-04-22T11:57:15.744Z,100229.12
2023-04-22T12:02:19.090Z,100228.64
2023-04-22T12:07:22.366Z,100221.80
2023-04-22T12:12:28.964Z,100218.55
2023-04-22T12:17:32.319Z,100215.89
2023-04-22T12:22:36.765Z,100213.53
2023-04-22T12:27:40.690Z,100211.83
2023-04-22T12:32:44.104Z,100207.54
2023-04-22T12:37:47.216Z,100203.27
2023-04-22T12:42:50.451Z,100202.60
2023-04-22T12:47:54.127Z,100196.33
2023-04-22T12:52:57.453Z,100189.92
2023-04-22T12:58:00.977Z,100184.90
2023-04-22T13:03:04.376Z,100177.88
2023-04-22T13:08:08.360Z,100173.84
2023-04-22T13:18:18.056Z,100175.77
2023-04-22T13:23:22.167Z,100174.81
2023-04-22T13:28:26.149Z,100168.88
2023-04-22T13:33:29.464Z,100163.73
2023-04-22T13:38:44.793Z,100166.41
2023-04-22T13:43:52.163Z,100165.56
2023-04-22T13:48:57.024Z,100168.91
2023-04-22T13:54:01.076Z,100168.45
2023-04-22T13:59:04.449Z,100159.12
2023-04-22T14:04:07.890Z,100157.09
2023-04-22T14:09:11.897Z,100154.78
2023-04-22T14:14:15.308Z,100153.05
2023-04-22T14:19:19.078Z,100149.80
2023-04-22T14:24:24.502Z,100144.00
2023-04-22T14:29:30.462Z,100144.86
2023-04-22T14:34:34.483Z,100137.02
2023-04-22T14:39:37.807Z,100130.23
2023-04-22T14:44:41.207Z,100129.26
2023-04-22T14:49:44.415Z,100125.81
2023-04-22T14:54:51.199Z,100126.76
2023-04-22T14:59:55.028Z,100126.45
2023-04-22T15:04:58.234Z,100122.70
2023-04-22T15:10:02.413Z,100119.70
2023-04-22T15:15:07.503Z,100116.50
2023-04-22T15:20:12.412Z,100115.78
2023-04-22T15:25:17.912Z,100112.70
2023-04-22T15:30:21.455Z,100111.65
2023-04-22T15:35:24.869Z,100112.89
2023-04-22T15:40:28.067Z,100112.56
2023-04-22T15:45:31.380Z,100111.42
2023-04-22T15:50:35.092Z,100105.15
2023-04-22T15:55:38.405Z,100101.83
2023-04-22T16:00:43.712Z,100096.60
2023-04-22T16:05:47.389Z,100094.11
2023-04-22T16:10:51.575Z,100089.81
2023-04-22T16:15:55.128Z,100083.27
2023-04-22T16:21:00.517Z,100085.19
2023-04-22T16:26:05.964Z,100082.10
2023-04-22T16:31:10.930Z,100079.51
2023-04-22T16:36:14.207Z,100079.61
2023-04-22T16:41:17.617Z,100077.30
2023-04-22T16:46:20.850Z,100077.05
2023-04-22T16:51:24.037Z,100079.35
2023-04-22T16:56:27.552Z,100079.64
2023-04-22T17:01:31.500Z,100078.05
2023-04-22T17:06:34.687Z,100074.14
2023-04-22T17:11:38.521Z,100071.32
2023-04-22T17:16:42.030Z,100070.70
2023-04-22T17:21:45.712Z,100070.67
2023-04-22T17:26:48.953Z,100073.17
2023-04-22T17:31:52.740Z,100073.30
2023-04-22T17:36:56.084Z,100077.37
2023-04-22T17:41:59.294Z,100076.75
2023-04-22T17:47:03.977Z,100074.60
2023-04-22T17:52:08.379Z,100071.38
2023-04-22T17:57:12.715Z,100073.31
2023-04-22T18:02:16.449Z,100080.99
2023-04-22T18:07:20.712Z,100084.58
2023-04-22T18:12:28.575Z,100090.71
2023-04-22T18:17:36.307Z,100090.04
2023-04-22T18:22:40.942Z,100091.55
2023-04-22T18:27:44.759Z,100092.23
2023-04-22T18:32:48.812Z,100093.91
2023-04-22T18:37:52.302Z,100089.67
2023-04-22T18:42:55.923Z,100088.99
2023-04-22T18:47:59.282Z,100094.46
2023-04-22T18:53:02.755Z,100102.27
2023-04-22T18:58:06.567Z,100103.48
2023-04-22T19:03:11.684Z,100101.18
2023-04-22T19:08:15.252Z,100096.99
2023-04-22T19:13:29.314Z,100093.13
2023-04-22T19:18:33.852Z,100092.20
2023-04-22T19:23:39.084Z,100095.91
2023-04-22T19:28:47.315Z,100095.18
2023-04-22T19:33:51.759Z,100086.27
2023-04-22T19:38:55.971Z,100087.34
2023-04-22T19:44:01.606Z,100080.75
2023-04-22T19:49:07.115Z,100075.71
2023-04-22T19:54:13.348Z,100078.66
2023-04-22T19:59:20.428Z,100078.39
2023-04-22T20:04:26.179Z,100078.41
2023-04-22T20:09:33.364Z,100084.23
2023-04-22T20:14:37.300Z,100083.23
2023-04-22T20:19:41.661Z,100079.04
2023-04-22T20:24:46.483Z,100075.62
2023-04-22T20:29:50.445Z,100075.93
2023-04-22T20:34:56.469Z,100072.92
2023-04-22T20:40:06.195Z,100068.30
2023-04-22T20:45:15.830Z,100066.34
2023-04-22T20:50:21.082Z,100062.92
2023-04-22T20:55:24.605Z,100066.42
2023-04-22T21:00:28.995Z,100062.66
2023-04-22T21:05:33.953Z,100063.55
2023-04-22T21:10:38.072Z,100059.67
2023-04-22T21:15:47.260Z,100058.33
2023-04-22T21:20:51.960Z,100055.86
2023-04-22T21:25:56.929Z,100056.28
2023-04-22T21:31:01.290Z,100055.24
2023-04-22T21:36:05.476Z,100055.45
2023-04-22T21:41:09.302Z,100053.50
2023-04-22T21:46:12.871Z,100054.36
2023-04-22T21:51:17.890Z,100057.20
2023-04-22T21:56:22.227Z,100054.29
2023-04-22T22:01:26.800Z,100055.39
2023-04-22T22:06:30.765Z,100055.72
2023-04-22T22:11:34.435Z,100056.33
2023-04-22T22:16:38.874Z,100057.40
2023-04-22T22:21:42.132Z,100060.02
2023-04-22T22:26:45.141Z,100059.29
2023-04-22T22:31:48.402Z,100059.06
2023-04-22T22:36:51.969Z,100057.34
2023-04-22T22:41:55.785Z,100056.01
2023-04-22T22:46:59.098Z,100059.09
2023-04-22T22:52:02.248Z,100059.05
2023-04-22T22:57:05.920Z,100055.83
2023-04-22T23:02:09.316Z,100055.88
2023-04-22T23:07:12.651Z,100050.52
2023-04-22T23:12:15.749Z,100052.17
2023-04-22T23:17:19.116Z,100047.00
2023-04-22T23:22:23.400Z,100048.17
2023-04-22T23:27:26.913Z,100047.55
2023-04-22T23:32:32.631Z,100038.87
2023-04-22T23:37:38.105Z,100037.65
2023-04-22T23:42:41.464Z,100038.59
2023-04-22T23:47:44.926Z,100035.35
2023-04-22T23:52:48.176Z,100033.79
2023-04-22T23:57:51.691Z,100031.80
